Cincinnati, OH

12:47 AM EST en Diciembre 06, 2016 (GMT -0500)
Norwood | | Change Station

Alt 620 ft 39.15 °N, 84.45 °W | Updated 1 minute ago

Clear
Despejado
39.7 ° F
Sensación térmica 40 ° F
N
2.0
Viento Variable Viento desde NE

Hoy
Alta -- | Baja -- ° F
--% Posibilidad de precipitaciones
Ayer
Alta -- | Baja -- ° F
Precip. -- pul
Presión 29.95 pul
Visibilidad 10.0 Millas
Nubes Despejado
Vientos helados 40 ° F
Punto de rocío 33 ° F
Humedad 79%
Precipitaciones 0.00 pul
Espesor de la nieve No disponible.
7:43 AM 5:14 PM
Creciente, 38% visible
METAR KLUK 060453Z AUTO 04006KT 10SM CLR 04/01 A2994 RMK AO2 SLP141 T00390011 400780022
Presión 29.95 pul
Visibilidad 10.0 Millas
Nubes Despejado
Vientos helados 40 ° F
Punto de rocío 33 ° F
Humedad 79%
Precipitaciones 0.00 pul
Espesor de la nieve No disponible.
7:43 AM 5:14 PM
Creciente, 38% visible
METAR KLUK 060453Z AUTO 04006KT 10SM CLR 04/01 A2994 RMK AO2 SLP141 T00390011 400780022

10-Day Weather Forecast

Almanac

Astronomía

Dec. 06, 2016 Salida Puesta
Hora real
Crepúsculo civil
Crepúsculo náutico
Crepúsculo astronómico
Luna
Horas de luz
Horas de luz
Tomorrow will be .
, % of the Moon is Illuminated

Extremos de hoy

Máximos del estado Bajos del estado

Community

WunderPhotos

Upload Photos

1,955,931 ¡fotos cargadas!

WunderBlog® & News

Nearby

Calidad del aire

  Calidad del aire Índice AQ Contaminante
Not available.

Grosos de nieve

Estación Profundido Altura

Actividad de terremotos

Ciudad Distance Mag. Tiempo y dato
Magnitud mínima muestra es 2,5.

Temperaturas de aguas costeras

Lugar Temperatura

Stations

Estaciones meteorológicas cercanas

Ubicación de la estación Temp. Vientos helados Punto de rocío Humedad Viento Precip. Alt Actualizado Tipo
                   

Watches & Warnings

There are currently no watches in effect.